createdAt,value
2023-05-03T00:07:14.741Z,11.80
2023-05-03T00:15:37.682Z,10.20
2023-05-03T00:24:01.030Z,11.00
2023-05-03T00:32:24.480Z,8.00
2023-05-03T00:40:54.045Z,7.40
2023-05-03T00:49:18.198Z,7.40
2023-05-03T00:57:41.275Z,8.90
2023-05-03T01:06:22.167Z,8.00
2023-05-03T01:15:03.421Z,6.80
2023-05-03T01:23:41.994Z,6.60
2023-05-03T01:32:13.957Z,10.70
2023-05-03T01:40:50.343Z,9.50
2023-05-03T01:49:13.522Z,5.70
2023-05-03T01:57:36.420Z,7.90
2023-05-03T02:05:59.441Z,7.60
2023-05-03T02:14:25.406Z,8.60
2023-05-03T02:22:48.394Z,6.50
2023-05-03T02:31:11.564Z,10.10
2023-05-03T02:39:37.536Z,9.00
2023-05-03T02:48:00.996Z,6.80
2023-05-03T02:56:27.182Z,10.70
2023-05-03T03:04:50.331Z,8.80
2023-05-03T03:13:15.549Z,9.60
2023-05-03T03:21:38.889Z,11.60
2023-05-03T03:30:02.360Z,9.30
2023-05-03T03:38:29.339Z,7.90
2023-05-03T03:46:54.723Z,8.00
2023-05-03T03:55:19.944Z,9.90
2023-05-03T04:03:48.139Z,9.20
2023-05-03T04:12:11.682Z,8.10
2023-05-03T04:20:37.631Z,11.00
2023-05-03T04:29:04.922Z,8.80
2023-05-03T04:37:29.645Z,12.30
2023-05-03T04:45:54.691Z,14.20
2023-05-03T04:54:20.343Z,9.10
2023-05-03T05:02:46.128Z,12.60
2023-05-03T05:11:11.666Z,9.60
2023-05-03T05:19:36.395Z,6.90
2023-05-03T05:28:00.977Z,6.80
2023-05-03T05:36:25.009Z,8.20
2023-05-03T05:44:48.586Z,11.30
2023-05-03T05:53:11.870Z,12.00
2023-05-03T06:01:42.737Z,21.00
2023-05-03T06:10:07.926Z,6.00
2023-05-03T06:18:32.138Z,7.80
2023-05-03T06:26:59.096Z,5.40
2023-05-03T06:35:24.462Z,11.20
2023-05-03T06:43:47.632Z,17.50
2023-05-03T06:52:11.848Z,10.00
2023-05-03T07:00:36.061Z,13.10
2023-05-03T07:08:59.047Z,3.60
2023-05-03T07:17:23.342Z,6.70
2023-05-03T07:25:46.435Z,5.60
2023-05-03T07:34:09.330Z,5.20
2023-05-03T07:42:33.421Z,7.80
2023-05-03T07:50:56.506Z,6.10
2023-05-03T07:59:19.495Z,15.10
2023-05-03T08:07:42.540Z,26.80
2023-05-03T08:16:07.420Z,5.50
2023-05-03T08:24:30.798Z,11.30
2023-05-03T08:32:54.853Z,4.60
2023-05-03T08:41:32.588Z,4.70
2023-05-03T08:49:56.079Z,5.60
2023-05-03T08:58:19.245Z,8.80
2023-05-03T09:06:42.200Z,5.40
2023-05-03T09:15:06.937Z,28.60
2023-05-03T09:23:32.036Z,5.30
2023-05-03T09:32:06.644Z,6.90
2023-05-03T09:40:29.632Z,5.40
2023-05-03T09:48:55.948Z,4.40
2023-05-03T09:57:19.242Z,4.20
2023-05-03T10:05:52.564Z,4.40
2023-05-03T10:14:17.325Z,6.20
2023-05-03T10:23:06.173Z,5.80
2023-05-03T10:31:48.863Z,7.60
2023-05-03T10:40:14.247Z,4.10
2023-05-03T10:48:37.319Z,3.80
2023-05-03T10:57:00.321Z,4.80
2023-05-03T11:05:27.181Z,3.50
2023-05-03T11:13:55.067Z,19.10
2023-05-03T11:22:19.022Z,6.90
2023-05-03T11:30:41.997Z,3.40
2023-05-03T11:39:06.048Z,3.50
2023-05-03T11:47:29.155Z,9.20
2023-05-03T11:55:54.431Z,6.10
2023-05-03T12:04:19.057Z,2.90
2023-05-03T12:13:01.164Z,4.60
2023-05-03T12:21:43.395Z,3.60
2023-05-03T12:30:10.836Z,3.40
2023-05-03T12:38:37.046Z,6.50
2023-05-03T12:47:01.239Z,2.90
2023-05-03T12:55:27.718Z,3.70
2023-05-03T13:04:14.753Z,3.30
2023-05-03T13:12:39.088Z,3.70
2023-05-03T13:21:02.083Z,9.10
2023-05-03T13:29:25.281Z,3.80
2023-05-03T13:37:48.374Z,5.90
2023-05-03T13:46:13.034Z,3.90
2023-05-03T13:54:37.361Z,5.20
2023-05-03T14:03:01.483Z,3.60
2023-05-03T14:11:25.794Z,4.20
2023-05-03T14:19:49.063Z,4.70
2023-05-03T14:28:12.186Z,4.60
2023-05-03T14:36:38.934Z,2.50
2023-05-03T14:45:02.829Z,2.00
2023-05-03T14:53:26.599Z,5.70
2023-05-03T15:01:53.241Z,4.40
2023-05-03T15:10:17.014Z,16.50
2023-05-03T15:18:40.159Z,5.70
2023-05-03T15:27:03.286Z,5.80
2023-05-03T15:35:26.373Z,7.70
2023-05-03T15:43:49.582Z,5.90
2023-05-03T15:52:12.573Z,11.00
2023-05-03T16:00:38.053Z,8.20
2023-05-03T16:09:01.758Z,28.80
2023-05-03T16:17:25.938Z,8.30
2023-05-03T16:25:49.372Z,44.20
2023-05-03T16:34:12.900Z,21.30
2023-05-03T16:42:37.210Z,47.60
2023-05-03T16:51:01.033Z,31.50
2023-05-03T16:59:24.835Z,27.20
2023-05-03T17:07:47.778Z,28.70
2023-05-03T17:16:15.787Z,62.70
2023-05-03T17:24:38.868Z,32.10
2023-05-03T17:33:01.893Z,52.10
2023-05-03T17:41:24.867Z,49.60
2023-05-03T17:49:47.808Z,39.00
2023-05-03T17:58:10.937Z,26.60
2023-05-03T18:06:34.006Z,124.70
2023-05-03T18:14:59.967Z,79.40
2023-05-03T18:23:22.970Z,59.70
2023-05-03T18:31:46.125Z,79.50
2023-05-03T18:40:09.309Z,79.30
2023-05-03T18:56:55.596Z,32.50
2023-05-03T19:05:18.732Z,17.00
2023-05-03T19:13:45.049Z,11.70
2023-05-03T19:22:08.154Z,8.60
2023-05-03T19:30:31.097Z,63.60
2023-05-03T19:38:55.647Z,64.90
2023-05-03T19:47:19.081Z,64.90
2023-05-03T19:55:42.108Z,67.40
2023-05-03T20:04:05.166Z,76.20
2023-05-03T20:12:29.518Z,58.30
2023-05-03T20:20:52.502Z,54.90
2023-05-03T20:29:15.981Z,50.10
2023-05-03T20:37:39.756Z,36.40
2023-05-03T20:46:02.892Z,24.30
2023-05-03T20:54:25.878Z,20.30
2023-05-03T21:02:54.493Z,20.80
2023-05-03T21:11:19.263Z,29.70
2023-05-03T21:19:42.248Z,42.00
2023-05-03T21:28:05.157Z,42.30
2023-05-03T21:36:28.221Z,23.00
2023-05-03T21:44:51.529Z,22.00
2023-05-03T21:53:15.744Z,25.50
2023-05-03T22:01:38.764Z,21.20
2023-05-03T22:10:02.083Z,25.40
2023-05-03T22:18:28.333Z,40.50
2023-05-03T22:26:51.314Z,26.40
2023-05-03T22:35:15.471Z,25.20
2023-05-03T22:43:38.617Z,23.70
2023-05-03T22:52:04.248Z,22.70
2023-05-03T23:00:27.394Z,24.90
2023-05-03T23:08:50.504Z,28.20
2023-05-03T23:17:14.006Z,41.70
2023-05-03T23:25:36.920Z,35.60
2023-05-03T23:34:00.032Z,27.90
2023-05-03T23:42:23.116Z,20.30
2023-05-03T23:50:46.011Z,26.40
2023-05-03T23:59:09.157Z,36.00
